createdAt,value
2018-07-12T00:00:20.443Z,9.66
2018-07-12T00:01:28.485Z,9.81
2018-07-12T00:02:36.551Z,9.70
2018-07-12T00:03:44.613Z,9.81
2018-07-12T00:04:52.664Z,9.84
2018-07-12T00:06:00.733Z,9.67
2018-07-12T00:07:08.836Z,9.69
2018-07-12T00:08:16.860Z,9.70
2018-07-12T00:09:24.932Z,9.67
2018-07-12T00:10:32.991Z,9.70
2018-07-12T00:11:41.054Z,9.64
2018-07-12T00:12:49.109Z,9.64
2018-07-12T00:13:57.166Z,9.58
2018-07-12T00:15:05.218Z,9.55
2018-07-12T00:16:13.287Z,9.58
2018-07-12T00:17:21.355Z,9.52
2018-07-12T00:18:29.419Z,9.59
2018-07-12T00:19:37.485Z,9.56
2018-07-12T00:20:45.540Z,9.52
2018-07-12T00:21:53.575Z,9.47
2018-07-12T00:23:01.674Z,9.56
2018-07-12T00:24:09.740Z,9.47
2018-07-12T00:25:17.810Z,9.48
2018-07-12T00:26:25.850Z,9.58
2018-07-12T00:27:33.922Z,9.56
2018-07-12T00:28:41.988Z,9.62
2018-07-12T00:29:50.056Z,9.51
2018-07-12T00:30:58.106Z,9.51
2018-07-12T00:32:06.178Z,9.54
2018-07-12T00:33:14.202Z,9.55
2018-07-12T00:34:22.296Z,9.54
2018-07-12T00:35:30.396Z,9.52
2018-07-12T00:36:38.420Z,9.52
2018-07-12T00:37:46.493Z,9.58
2018-07-12T00:38:54.548Z,9.54
2018-07-12T00:40:02.639Z,9.55
2018-07-12T00:41:10.655Z,9.58
2018-07-12T00:42:18.728Z,9.52
2018-07-12T00:43:26.796Z,9.56
2018-07-12T00:44:34.859Z,9.52
2018-07-12T00:45:42.926Z,9.51
2018-07-12T00:46:50.965Z,9.47
2018-07-12T00:47:59.386Z,9.47
2018-07-12T00:49:07.105Z,9.58
2018-07-12T00:50:15.179Z,9.52
2018-07-12T00:51:23.228Z,9.49
2018-07-12T00:52:31.299Z,9.42
2018-07-12T00:53:39.399Z,9.40
2018-07-12T00:54:47.406Z,9.48
2018-07-12T00:55:55.469Z,9.47
2018-07-12T00:57:03.538Z,9.39
2018-07-12T00:58:11.643Z,9.47
2018-07-12T00:59:19.692Z,9.48
2018-07-12T01:00:27.743Z,9.55
2018-07-12T01:01:35.780Z,9.49
2018-07-12T01:02:43.832Z,9.56
2018-07-12T01:03:51.936Z,9.54
2018-07-12T01:04:59.987Z,9.67
2018-07-12T01:06:08.088Z,9.67
2018-07-12T01:07:16.118Z,9.72
2018-07-12T01:08:24.186Z,9.67
2018-07-12T01:09:32.251Z,9.72
2018-07-12T01:10:40.294Z,9.73
2018-07-12T01:11:48.345Z,9.69
2018-07-12T01:12:56.421Z,9.72
2018-07-12T01:14:04.476Z,9.67
2018-07-12T01:15:12.541Z,9.70
2018-07-12T01:16:20.588Z,9.58
2018-07-12T01:17:28.663Z,9.52
2018-07-12T01:18:36.726Z,9.54
2018-07-12T01:19:44.793Z,9.56
2018-07-12T01:20:52.848Z,9.55
2018-07-12T01:22:00.899Z,9.52
2018-07-12T01:23:08.963Z,9.56
2018-07-12T01:24:17.040Z,9.54
2018-07-12T01:25:25.122Z,9.52
2018-07-12T01:26:33.164Z,9.54
2018-07-12T01:27:41.234Z,9.52
2018-07-12T01:28:49.286Z,9.51
2018-07-12T01:29:57.351Z,9.58
2018-07-12T01:31:05.404Z,9.55
2018-07-12T01:32:13.449Z,9.52
2018-07-12T01:33:21.528Z,9.56
2018-07-12T01:34:29.600Z,9.51
2018-07-12T01:35:37.655Z,9.52
2018-07-12T01:36:45.704Z,9.54
2018-07-12T01:37:53.764Z,9.51
2018-07-12T01:39:01.852Z,9.51
2018-07-12T01:40:09.888Z,9.52
2018-07-12T01:41:17.967Z,9.54
2018-07-12T01:42:26.138Z,9.45
2018-07-12T01:43:34.074Z,9.47
2018-07-12T01:44:42.141Z,9.34
2018-07-12T01:45:50.231Z,9.40
2018-07-12T01:46:58.296Z,9.34
2018-07-12T01:48:06.343Z,9.37
2018-07-12T01:49:14.410Z,9.34
2018-07-12T01:50:22.467Z,9.34
2018-07-12T01:51:30.511Z,9.34
2018-07-12T01:52:38.588Z,9.37
2018-07-12T01:53:46.677Z,9.34
2018-07-12T01:54:54.709Z,9.39
2018-07-12T01:56:02.778Z,9.31
2018-07-12T01:57:10.828Z,9.27
2018-07-12T01:58:18.950Z,9.22
2018-07-12T01:59:26.945Z,9.30
2018-07-12T02:00:35.084Z,9.30
2018-07-12T02:01:43.112Z,9.18
2018-07-12T02:02:51.146Z,9.27
2018-07-12T02:03:59.233Z,9.21
2018-07-12T02:05:07.302Z,9.19
2018-07-12T02:06:15.362Z,9.13
2018-07-12T02:07:23.412Z,9.24
2018-07-12T02:08:31.527Z,9.22
2018-07-12T02:09:39.531Z,9.26
2018-07-12T02:10:47.632Z,9.19
2018-07-12T02:11:55.677Z,9.21
2018-07-12T02:13:03.766Z,9.29
2018-07-12T02:14:11.823Z,9.30
2018-07-12T02:15:19.878Z,9.34
2018-07-12T02:16:27.953Z,9.31
2018-07-12T02:17:36.021Z,9.30
2018-07-12T02:18:44.076Z,9.29
2018-07-12T02:19:52.146Z,9.19
2018-07-12T02:21:00.259Z,9.31
2018-07-12T02:22:08.295Z,9.27
2018-07-12T02:23:16.341Z,9.34
2018-07-12T02:24:24.431Z,9.31
2018-07-12T02:25:32.476Z,9.18
2018-07-12T02:26:40.526Z,9.19
2018-07-12T02:27:48.625Z,9.22
2018-07-12T02:28:56.673Z,9.24
2018-07-12T02:30:04.742Z,9.13
2018-07-12T02:31:12.774Z,9.12
2018-07-12T02:32:20.861Z,9.22
2018-07-12T02:33:28.914Z,9.18
2018-07-12T02:34:37.001Z,9.13
2018-07-12T02:35:45.039Z,9.26
2018-07-12T02:36:53.108Z,9.19
2018-07-12T02:38:01.181Z,9.33
2018-07-12T02:39:09.232Z,9.24
2018-07-12T02:40:17.302Z,9.26
2018-07-12T02:41:25.360Z,9.37
2018-07-12T02:42:33.431Z,9.33
2018-07-12T02:43:41.476Z,9.29
2018-07-12T02:44:49.546Z,9.30
2018-07-12T02:45:57.632Z,9.31
2018-07-12T02:47:05.678Z,9.30
2018-07-12T02:48:13.733Z,9.24
2018-07-12T02:49:21.809Z,9.29
2018-07-12T02:50:29.876Z,9.31
2018-07-12T02:51:37.932Z,9.27
2018-07-12T02:52:45.999Z,9.22
2018-07-12T02:53:54.047Z,9.21
2018-07-12T02:55:02.134Z,9.12
2018-07-12T02:56:10.186Z,9.16
2018-07-12T02:57:18.248Z,9.16
2018-07-12T02:58:26.342Z,9.13
2018-07-12T02:59:34.370Z,9.13
2018-07-12T03:00:42.512Z,9.15
2018-07-12T03:01:50.506Z,9.15
2018-07-12T03:02:58.577Z,8.96
2018-07-12T03:04:06.638Z,8.93
2018-07-12T03:05:14.694Z,8.97
2018-07-12T03:06:22.757Z,9.12
2018-07-12T03:07:30.820Z,9.12
2018-07-12T03:08:38.906Z,9.12
2018-07-12T03:09:46.941Z,9.12
2018-07-12T03:10:55.015Z,9.11
2018-07-12T03:12:03.090Z,9.11
2018-07-12T03:13:11.163Z,9.00
2018-07-12T03:14:19.224Z,9.05
2018-07-12T03:15:27.269Z,8.96
2018-07-12T03:16:35.337Z,8.95
2018-07-12T03:17:43.388Z,9.00
2018-07-12T03:18:51.465Z,8.93
2018-07-12T03:19:59.536Z,8.92
2018-07-12T03:21:07.590Z,8.89
2018-07-12T03:22:15.661Z,8.90
2018-07-12T03:23:23.705Z,8.84
2018-07-12T03:24:31.764Z,8.90
2018-07-12T03:25:39.863Z,8.87
2018-07-12T03:26:47.918Z,8.89
2018-07-12T03:27:55.957Z,8.86
2018-07-12T03:29:04.027Z,8.87
2018-07-12T03:30:12.110Z,8.90
2018-07-12T03:31:20.157Z,8.90
2018-07-12T03:32:28.223Z,8.87
2018-07-12T03:33:36.298Z,8.96
2018-07-12T03:34:44.357Z,8.92
2018-07-12T03:35:52.420Z,8.92
2018-07-12T03:37:00.460Z,8.95
2018-07-12T03:38:08.523Z,8.81
2018-07-12T03:39:16.609Z,8.84
2018-07-12T03:40:24.684Z,8.82
2018-07-12T03:41:32.723Z,8.84
2018-07-12T03:42:40.804Z,8.82
2018-07-12T03:43:48.844Z,8.84
2018-07-12T03:44:56.927Z,8.87
2018-07-12T03:46:04.964Z,8.82
2018-07-12T03:47:13.030Z,8.79
2018-07-12T03:48:21.082Z,8.78
2018-07-12T03:49:29.354Z,8.82
2018-07-12T03:50:37.415Z,8.78
2018-07-12T03:51:45.490Z,8.79
2018-07-12T03:52:53.537Z,8.79
2018-07-12T03:54:01.599Z,8.82
2018-07-12T03:55:09.680Z,8.86
2018-07-12T03:56:17.715Z,8.81
2018-07-12T03:57:25.794Z,8.82
2018-07-12T03:58:33.845Z,8.82
2018-07-12T03:59:41.933Z,8.79
2018-07-12T04:00:49.966Z,8.84
2018-07-12T04:01:58.054Z,8.89
2018-07-12T04:03:06.105Z,8.81
2018-07-12T04:04:14.128Z,8.77
2018-07-12T04:05:22.219Z,8.81
2018-07-12T04:06:30.277Z,8.82
2018-07-12T04:07:38.365Z,8.81
2018-07-12T04:08:46.427Z,8.86
2018-07-12T04:09:54.468Z,8.92
2018-07-12T04:11:02.593Z,8.90
2018-07-12T04:12:10.601Z,8.92
2018-07-12T04:13:18.687Z,8.95
2018-07-12T04:14:26.750Z,9.03
2018-07-12T04:15:34.791Z,9.02
2018-07-12T04:16:42.854Z,8.96
2018-07-12T04:17:50.910Z,8.99
2018-07-12T04:18:59.264Z,8.99
2018-07-12T04:20:07.043Z,9.13
2018-07-12T04:21:15.098Z,9.13
2018-07-12T04:22:23.162Z,9.11
2018-07-12T04:23:31.340Z,9.09
2018-07-12T04:24:39.312Z,9.13
2018-07-12T04:25:47.373Z,9.12
2018-07-12T04:26:55.448Z,9.24
2018-07-12T04:28:03.482Z,9.26
2018-07-12T04:29:11.540Z,9.24
2018-07-12T04:30:19.612Z,9.33
2018-07-12T04:31:27.654Z,9.33
2018-07-12T04:32:35.713Z,9.33
2018-07-12T04:33:43.773Z,9.36
2018-07-12T04:34:51.856Z,9.34
2018-07-12T04:35:59.927Z,9.37
2018-07-12T04:37:07.970Z,9.45
2018-07-12T04:38:16.043Z,9.54
2018-07-12T04:39:24.110Z,9.62
2018-07-12T04:40:32.166Z,9.56
2018-07-12T04:41:41.647Z,9.64
2018-07-12T04:42:48.557Z,9.63
2018-07-12T04:43:56.357Z,9.63
2018-07-12T04:45:04.430Z,9.67
2018-07-12T04:46:12.477Z,9.64
2018-07-12T04:47:21.076Z,9.69
2018-07-12T04:48:28.634Z,9.72
2018-07-12T04:49:36.716Z,9.63
2018-07-12T04:50:44.731Z,9.74
2018-07-12T04:51:52.826Z,9.77
2018-07-12T04:53:00.863Z,9.80
2018-07-12T04:54:08.921Z,9.77
2018-07-12T04:55:17.193Z,9.80
2018-07-12T04:56:25.056Z,9.80
2018-07-12T04:57:33.130Z,9.88
2018-07-12T04:58:41.194Z,9.97
2018-07-12T04:59:49.248Z,10.00
2018-07-12T05:00:57.298Z,10.07
2018-07-12T05:02:05.355Z,10.17
2018-07-12T05:03:13.407Z,10.17
2018-07-12T05:04:21.537Z,10.28
2018-07-12T05:05:32.602Z,10.34
2018-07-12T05:06:37.610Z,10.34
2018-07-12T05:07:45.690Z,10.46
2018-07-12T05:08:57.414Z,10.76
2018-07-12T05:10:01.843Z,11.08
2018-07-12T05:11:09.974Z,11.51
2018-07-12T05:12:18.267Z,11.88
2018-07-12T05:13:26.111Z,11.96
2018-07-12T05:14:34.035Z,11.81
2018-07-12T05:15:42.128Z,11.78
2018-07-12T05:16:50.171Z,11.73
2018-07-12T05:17:58.262Z,11.73
2018-07-12T05:19:06.329Z,11.74
2018-07-12T05:20:14.380Z,11.70
2018-07-12T05:21:22.432Z,11.60
2018-07-12T05:22:31.916Z,11.62
2018-07-12T05:23:38.597Z,11.71
2018-07-12T05:24:46.635Z,11.67
2018-07-12T05:25:54.701Z,11.70
2018-07-12T05:27:02.777Z,11.77
2018-07-12T05:28:10.821Z,11.85
2018-07-12T05:29:18.902Z,11.88
2018-07-12T05:30:26.957Z,11.85
2018-07-12T05:31:35.015Z,11.85
2018-07-12T05:32:43.083Z,11.95
2018-07-12T05:33:51.158Z,11.96
2018-07-12T05:34:59.225Z,11.95
2018-07-12T05:36:07.285Z,12.07
2018-07-12T05:37:15.352Z,12.05
2018-07-12T05:38:23.407Z,12.14
2018-07-12T05:39:31.466Z,12.14
2018-07-12T05:40:39.533Z,12.17
2018-07-12T05:41:47.598Z,12.28
2018-07-12T05:42:55.669Z,12.26
2018-07-12T05:44:03.724Z,12.30
2018-07-12T05:45:11.788Z,12.30
2018-07-12T05:46:19.859Z,12.44
2018-07-12T05:47:27.963Z,12.36
2018-07-12T05:48:35.995Z,12.45
2018-07-12T05:49:44.038Z,12.48
2018-07-12T05:50:52.125Z,12.54
2018-07-12T05:52:00.178Z,12.61
2018-07-12T05:53:08.272Z,12.61
2018-07-12T05:54:16.326Z,12.66
2018-07-12T05:55:24.406Z,12.73
2018-07-12T05:56:32.443Z,12.70
2018-07-12T05:57:40.577Z,12.73
2018-07-12T05:58:48.579Z,12.80
2018-07-12T05:59:56.637Z,12.81
2018-07-12T06:01:04.709Z,12.90
2018-07-12T06:02:12.789Z,13.02
2018-07-12T06:03:20.833Z,12.94
2018-07-12T06:04:28.901Z,13.05
2018-07-12T06:05:36.959Z,13.12
2018-07-12T06:06:45.021Z,13.16
2018-07-12T06:07:53.102Z,13.17
2018-07-12T06:09:01.166Z,13.27
2018-07-12T06:10:09.222Z,13.24
2018-07-12T06:11:17.296Z,13.36
2018-07-12T06:12:25.369Z,13.47
2018-07-12T06:13:33.420Z,13.54
2018-07-12T06:14:41.513Z,13.60
2018-07-12T06:15:49.560Z,13.75
2018-07-12T06:16:57.640Z,13.91
2018-07-12T06:18:05.703Z,14.11
2018-07-12T06:19:13.731Z,14.28
2018-07-12T06:20:21.823Z,14.31
2018-07-12T06:21:29.882Z,14.38
2018-07-12T06:22:37.942Z,14.40
2018-07-12T06:23:46.047Z,14.44
2018-07-12T06:24:55.143Z,14.44
2018-07-12T06:26:02.163Z,14.49
2018-07-12T06:27:10.216Z,14.59
2018-07-12T06:28:18.284Z,14.56
2018-07-12T06:29:26.356Z,14.67
2018-07-12T06:30:34.425Z,14.87
2018-07-12T06:31:42.479Z,14.86
2018-07-12T06:32:50.547Z,14.82
2018-07-12T06:33:58.600Z,14.92
2018-07-12T06:35:06.670Z,15.00
2018-07-12T06:36:14.753Z,14.96
2018-07-12T06:37:22.821Z,14.99
2018-07-12T06:38:30.885Z,14.94
2018-07-12T06:39:38.939Z,15.10
2018-07-12T06:40:47.029Z,15.07
2018-07-12T06:41:55.089Z,15.22
2018-07-12T06:43:03.158Z,15.22
2018-07-12T06:44:11.238Z,15.19
2018-07-12T06:45:19.288Z,15.26
2018-07-12T06:46:27.340Z,15.35
2018-07-12T06:47:35.445Z,15.36
2018-07-12T06:48:43.468Z,15.39
2018-07-12T06:49:51.558Z,15.48
2018-07-12T06:50:59.622Z,15.45
2018-07-12T06:52:07.702Z,15.48
2018-07-12T06:53:15.764Z,15.55
2018-07-12T06:54:23.803Z,15.72
2018-07-12T06:55:31.896Z,15.84
2018-07-12T06:56:39.956Z,15.94
2018-07-12T06:57:48.034Z,15.99
2018-07-12T06:58:56.093Z,16.08
2018-07-12T07:00:04.161Z,16.10
2018-07-12T07:01:12.260Z,16.21
2018-07-12T07:02:20.310Z,16.28
2018-07-12T07:03:28.366Z,16.40
2018-07-12T07:04:36.426Z,16.44
2018-07-12T07:05:44.482Z,16.47
2018-07-12T07:06:52.568Z,16.55
2018-07-12T07:09:08.679Z,16.59
2018-07-12T07:10:17.752Z,16.69
2018-07-12T07:11:25.838Z,16.92
2018-07-12T07:12:33.881Z,17.12
2018-07-12T07:13:41.972Z,17.35
2018-07-12T07:14:50.117Z,17.54
2018-07-12T07:15:58.101Z,17.79
2018-07-12T07:17:06.384Z,18.24
2018-07-12T07:18:14.452Z,18.81
2018-07-12T07:19:23.898Z,19.19
2018-07-12T07:20:31.979Z,19.38
2018-07-12T07:21:40.048Z,19.47
2018-07-12T07:22:48.107Z,19.56
2018-07-12T07:23:56.191Z,19.87
2018-07-12T07:25:07.306Z,20.03
2018-07-12T07:26:15.678Z,20.26
2018-07-12T07:27:23.423Z,20.49
2018-07-12T07:28:31.528Z,20.58
2018-07-12T07:29:40.996Z,20.74
2018-07-12T07:32:07.020Z,20.85
2018-07-12T07:33:16.284Z,21.25
2018-07-12T07:34:28.618Z,21.85
2018-07-12T07:35:35.857Z,22.61
2018-07-12T07:36:43.914Z,23.13
2018-07-12T07:37:52.001Z,23.81
2018-07-12T07:39:00.077Z,24.19
2018-07-12T07:40:08.161Z,24.92
2018-07-12T07:41:16.226Z,25.26
2018-07-12T07:42:24.274Z,25.71
2018-07-12T07:43:32.357Z,25.95
2018-07-12T07:44:40.439Z,26.27
2018-07-12T07:45:48.514Z,26.48
2018-07-12T07:46:56.615Z,26.78
2018-07-12T07:48:04.680Z,26.83
2018-07-12T07:49:12.806Z,27.03
2018-07-12T07:50:20.824Z,27.38
2018-07-12T07:51:28.896Z,27.38
2018-07-12T07:52:36.985Z,27.76
2018-07-12T07:53:45.074Z,28.06
2018-07-12T07:54:53.169Z,28.18
2018-07-12T07:56:01.239Z,28.25
2018-07-12T07:57:09.337Z,28.20
2018-07-12T07:58:17.385Z,28.56
2018-07-12T07:59:25.468Z,28.84
2018-07-12T08:00:33.553Z,28.89
2018-07-12T08:01:41.673Z,29.25
2018-07-12T08:02:49.732Z,29.28
2018-07-12T08:03:57.776Z,29.12
2018-07-12T08:05:05.855Z,29.39
2018-07-12T08:06:13.931Z,29.12
2018-07-12T08:07:22.042Z,28.97
2018-07-12T08:08:30.102Z,28.89
2018-07-12T08:09:38.240Z,29.06
2018-07-12T08:10:46.284Z,29.16
2018-07-12T08:11:54.335Z,29.61
2018-07-12T08:13:02.437Z,29.53
2018-07-12T08:14:10.526Z,29.58
2018-07-12T08:15:18.608Z,29.61
2018-07-12T08:16:26.695Z,29.68
2018-07-12T08:17:34.764Z,29.57
2018-07-12T08:18:42.851Z,29.64
2018-07-12T08:19:50.962Z,29.84
2018-07-12T08:20:59.040Z,30.01
2018-07-12T08:22:07.111Z,30.16
2018-07-12T08:23:15.185Z,30.18
2018-07-12T08:24:23.285Z,30.13
2018-07-12T08:25:31.351Z,30.39
2018-07-12T08:26:42.504Z,30.02
2018-07-12T08:27:50.341Z,30.13
2018-07-12T08:28:58.423Z,30.01
2018-07-12T08:30:06.715Z,29.61
2018-07-12T08:31:14.882Z,29.87
2018-07-12T08:32:22.870Z,29.71
2018-07-12T08:33:31.031Z,29.58
2018-07-12T08:34:39.039Z,29.69
2018-07-12T08:35:47.124Z,29.64
2018-07-12T08:36:55.268Z,29.55
2018-07-12T08:38:03.288Z,29.74
2018-07-12T08:39:11.378Z,29.68
2018-07-12T08:40:19.453Z,29.40
2018-07-12T08:41:27.550Z,29.77
2018-07-12T08:42:35.761Z,30.01
2018-07-12T08:43:43.712Z,29.58
2018-07-12T08:44:51.785Z,29.37
2018-07-12T08:45:59.891Z,29.55
2018-07-12T08:47:07.967Z,29.69
2018-07-12T08:48:16.059Z,29.43
2018-07-12T08:49:24.124Z,29.03
2018-07-12T08:50:32.239Z,28.80
2018-07-12T08:51:40.327Z,28.71
2018-07-12T08:52:48.403Z,28.10
2018-07-12T08:53:56.474Z,27.60
2018-07-12T08:55:04.550Z,27.16
2018-07-12T08:56:12.666Z,26.83
2018-07-12T08:57:20.737Z,26.33
2018-07-12T08:58:28.830Z,25.93
2018-07-12T08:59:36.904Z,25.95
2018-07-12T09:00:45.009Z,25.52
2018-07-12T09:01:53.168Z,25.24
2018-07-12T09:03:01.289Z,25.07
2018-07-12T09:04:09.208Z,25.00
2018-07-12T09:05:17.311Z,24.86
2018-07-12T09:06:25.376Z,24.68
2018-07-12T09:07:33.425Z,24.55
2018-07-12T09:08:41.895Z,24.53
2018-07-12T09:09:49.614Z,24.85
2018-07-12T09:10:57.681Z,25.33
2018-07-12T09:12:05.785Z,25.56
2018-07-12T09:13:13.860Z,26.01
2018-07-12T09:14:21.934Z,26.48
2018-07-12T09:15:29.997Z,26.86
2018-07-12T09:16:38.093Z,27.13
2018-07-12T09:17:46.168Z,27.47
2018-07-12T09:18:54.493Z,27.85
2018-07-12T09:20:02.556Z,28.45
2018-07-12T09:21:10.632Z,28.57
2018-07-12T09:22:18.697Z,28.72
2018-07-12T09:23:26.807Z,29.13
2018-07-12T09:24:34.854Z,29.13
2018-07-12T09:25:42.965Z,28.71
2018-07-12T09:26:51.484Z,28.33
2018-07-12T09:27:59.116Z,28.04
2018-07-12T09:29:07.190Z,27.57
2018-07-12T09:30:15.278Z,27.48
2018-07-12T09:31:23.358Z,27.19
2018-07-12T09:32:31.438Z,26.85
2018-07-12T09:33:39.506Z,26.81
2018-07-12T09:34:47.638Z,26.73
2018-07-12T09:35:55.682Z,26.45
2018-07-12T09:37:03.802Z,26.74
2018-07-12T09:38:11.827Z,26.81
2018-07-12T09:39:19.910Z,26.60
2018-07-12T09:40:28.219Z,26.56
2018-07-12T09:41:36.253Z,26.59
2018-07-12T09:42:44.363Z,26.44
2018-07-12T09:43:52.439Z,26.52
2018-07-12T09:45:01.099Z,26.56
2018-07-12T09:46:09.185Z,26.33
2018-07-12T09:47:18.582Z,26.01
2018-07-12T09:48:25.362Z,25.81
2018-07-12T09:49:33.404Z,25.88
2018-07-12T09:50:41.497Z,25.99
2018-07-12T09:51:48.967Z,25.93
2018-07-12T09:52:57.041Z,25.85
2018-07-12T09:54:05.143Z,25.83
2018-07-12T09:55:13.196Z,25.77
2018-07-12T09:56:21.690Z,25.44
2018-07-12T09:57:29.477Z,25.09
2018-07-12T09:58:37.439Z,25.14
2018-07-12T09:59:45.507Z,25.09
2018-07-12T10:00:53.580Z,25.18
2018-07-12T10:02:01.678Z,25.16
2018-07-12T10:03:09.732Z,25.09
2018-07-12T10:04:17.819Z,24.84
2018-07-12T10:05:25.898Z,24.75
2018-07-12T10:06:33.961Z,24.69
2018-07-12T10:07:42.041Z,24.69
2018-07-12T10:08:50.114Z,24.62
2018-07-12T10:09:58.205Z,24.63
2018-07-12T10:11:06.267Z,24.59
2018-07-12T10:12:14.305Z,24.59
2018-07-12T10:13:22.446Z,24.55
2018-07-12T10:14:30.541Z,24.69
2018-07-12T10:15:38.554Z,24.56
2018-07-12T10:16:46.627Z,24.55
2018-07-12T10:17:54.745Z,24.58
2018-07-12T10:19:02.794Z,24.74
2018-07-12T10:20:10.867Z,24.68
2018-07-12T10:21:18.952Z,24.78
2018-07-12T10:22:27.024Z,24.93
2018-07-12T10:23:35.098Z,25.25
2018-07-12T10:24:43.156Z,25.31
2018-07-12T10:25:51.238Z,25.31
2018-07-12T10:26:59.324Z,25.34
2018-07-12T10:28:07.460Z,25.36
2018-07-12T10:29:15.517Z,25.58
2018-07-12T10:30:23.550Z,25.77
2018-07-12T10:31:31.598Z,25.91
2018-07-12T10:32:39.690Z,25.99
2018-07-12T10:33:47.773Z,26.22
2018-07-12T10:34:55.877Z,26.29
2018-07-12T10:36:03.875Z,26.31
2018-07-12T10:37:11.979Z,26.37
2018-07-12T10:38:20.068Z,26.63
2018-07-12T10:39:28.143Z,26.66
2018-07-12T10:40:36.217Z,26.81
2018-07-12T10:41:44.313Z,26.82
2018-07-12T10:42:52.344Z,26.81
2018-07-12T10:44:00.457Z,26.83
2018-07-12T10:45:08.710Z,26.53
2018-07-12T10:46:16.613Z,26.16
2018-07-12T10:47:24.677Z,26.06
2018-07-12T10:48:33.152Z,25.92
2018-07-12T10:49:40.805Z,25.89
2018-07-12T10:50:48.898Z,25.91
2018-07-12T10:51:56.966Z,25.93
2018-07-12T10:53:05.058Z,25.71
2018-07-12T10:54:13.102Z,25.71
2018-07-12T10:55:21.184Z,25.58
2018-07-12T10:56:29.284Z,25.54
2018-07-12T10:57:37.323Z,25.62
2018-07-12T10:58:45.450Z,25.59
2018-07-12T10:59:53.542Z,25.80
2018-07-12T11:01:01.554Z,25.76
2018-07-12T11:02:09.645Z,25.80
2018-07-12T11:03:17.720Z,25.81
2018-07-12T11:04:25.861Z,25.88
2018-07-12T11:05:33.824Z,25.78
2018-07-12T11:06:41.930Z,25.89
2018-07-12T11:07:49.975Z,25.93
2018-07-12T11:08:58.083Z,25.89
2018-07-12T11:10:06.136Z,25.92
2018-07-12T11:11:14.230Z,25.95
2018-07-12T11:12:22.313Z,25.83
2018-07-12T11:13:30.381Z,25.88
2018-07-12T11:14:38.459Z,25.95
2018-07-12T11:15:46.554Z,25.98
2018-07-12T11:16:54.592Z,26.04
2018-07-12T11:18:02.670Z,26.07
2018-07-12T11:19:10.792Z,26.04
2018-07-12T11:20:18.856Z,26.04
2018-07-12T11:21:26.898Z,26.03
2018-07-12T11:22:34.966Z,25.88
2018-07-12T11:23:43.072Z,25.61
2018-07-12T11:24:51.116Z,25.34
2018-07-12T11:25:59.381Z,25.15
2018-07-12T11:27:07.490Z,24.94
2018-07-12T11:28:15.881Z,24.75
2018-07-12T11:29:23.637Z,24.56
2018-07-12T11:30:31.708Z,24.59
2018-07-12T11:31:39.760Z,24.47
2018-07-12T11:32:47.854Z,24.51
2018-07-12T11:33:55.935Z,24.48
2018-07-12T11:35:03.983Z,24.46
2018-07-12T11:36:12.100Z,24.46
2018-07-12T11:37:20.163Z,24.40
2018-07-12T11:38:28.206Z,24.46
2018-07-12T11:39:37.317Z,24.48
2018-07-12T11:40:44.397Z,24.59
2018-07-12T11:41:52.431Z,24.58
2018-07-12T11:43:00.519Z,24.59
2018-07-12T11:44:08.572Z,24.86
2018-07-12T11:45:16.690Z,24.92
2018-07-12T11:46:24.770Z,25.25
2018-07-12T11:47:32.827Z,25.46
2018-07-12T11:48:40.879Z,25.74
2018-07-12T11:49:48.952Z,25.98
2018-07-12T11:50:57.163Z,26.04
2018-07-12T11:52:05.129Z,26.04
2018-07-12T11:53:13.189Z,26.15
2018-07-12T11:54:21.246Z,26.01
2018-07-12T11:55:29.319Z,25.86
2018-07-12T11:56:37.395Z,25.81
2018-07-12T11:57:45.453Z,25.56
2018-07-12T11:58:53.553Z,25.26
2018-07-12T12:00:01.621Z,25.16
2018-07-12T12:01:09.694Z,25.16
2018-07-12T12:02:17.815Z,25.49
2018-07-12T12:03:25.994Z,25.76
2018-07-12T12:04:33.911Z,25.59
2018-07-12T12:05:42.003Z,25.71
2018-07-12T12:06:50.116Z,25.71
2018-07-12T12:07:58.165Z,25.80
2018-07-12T12:09:06.234Z,25.61
2018-07-12T12:10:14.288Z,25.34
2018-07-12T12:11:22.390Z,25.25
2018-07-12T12:12:30.454Z,25.22
2018-07-12T12:13:38.542Z,25.33
2018-07-12T12:14:46.598Z,25.59
2018-07-12T12:15:54.690Z,25.80
2018-07-12T12:17:02.774Z,26.01
2018-07-12T12:18:10.791Z,26.33
2018-07-12T12:19:19.141Z,26.48
2018-07-12T12:20:27.164Z,26.74
2018-07-12T12:21:35.249Z,27.16
2018-07-12T12:22:43.337Z,27.16
2018-07-12T12:23:51.391Z,27.18
2018-07-12T12:24:59.485Z,27.11
2018-07-12T12:26:07.511Z,27.43
2018-07-12T12:27:15.631Z,27.52
2018-07-12T12:28:23.666Z,27.66
2018-07-12T12:29:31.776Z,27.61
2018-07-12T12:30:39.855Z,27.52
2018-07-12T12:31:47.938Z,27.30
2018-07-12T12:32:55.987Z,27.29
2018-07-12T12:34:04.073Z,27.34
2018-07-12T12:35:12.188Z,27.55
2018-07-12T12:36:20.217Z,27.52
2018-07-12T12:37:28.334Z,27.57
2018-07-12T12:38:36.368Z,27.63
2018-07-12T12:39:44.461Z,27.71
2018-07-12T12:40:52.538Z,27.78
2018-07-12T12:42:00.647Z,27.57
2018-07-12T12:43:08.768Z,27.01
2018-07-12T12:44:16.733Z,26.66
2018-07-12T12:45:24.812Z,26.37
2018-07-12T12:46:33.259Z,26.04
2018-07-12T12:47:40.976Z,25.95
2018-07-12T12:48:49.051Z,25.85
2018-07-12T12:49:57.119Z,25.61
2018-07-12T12:51:05.191Z,25.39
2018-07-12T12:52:13.245Z,25.33
2018-07-12T12:53:21.350Z,25.34
2018-07-12T12:54:29.431Z,25.46
2018-07-12T12:55:37.473Z,25.51
2018-07-12T12:56:45.576Z,25.44
2018-07-12T12:57:53.619Z,25.54
2018-07-12T12:59:01.733Z,25.44
2018-07-12T13:00:09.823Z,25.43
2018-07-12T13:01:17.923Z,25.49
2018-07-12T13:02:25.925Z,25.58
2018-07-12T13:03:34.014Z,25.83
2018-07-12T13:04:42.098Z,25.86
2018-07-12T13:05:50.158Z,26.18
2018-07-12T13:06:58.267Z,26.06
2018-07-12T13:08:06.398Z,26.03
2018-07-12T13:09:14.352Z,25.99
2018-07-12T13:10:22.460Z,26.18
2018-07-12T13:11:30.519Z,26.31
2018-07-12T13:12:38.619Z,26.36
2018-07-12T13:13:46.704Z,26.55
2018-07-12T13:14:54.759Z,26.63
2018-07-12T13:16:02.832Z,26.74
2018-07-12T13:17:10.898Z,26.86
2018-07-12T13:18:18.986Z,26.85
2018-07-12T13:19:27.043Z,27.07
2018-07-12T13:20:35.122Z,26.88
2018-07-12T13:21:43.172Z,26.92
2018-07-12T13:22:51.270Z,26.86
2018-07-12T13:23:59.369Z,26.68
2018-07-12T13:25:07.431Z,26.73
2018-07-12T13:26:15.470Z,27.03
2018-07-12T13:27:23.567Z,27.01
2018-07-12T13:28:31.658Z,26.96
2018-07-12T13:29:39.717Z,27.04
2018-07-12T13:30:47.773Z,27.08
2018-07-12T13:31:55.936Z,27.00
2018-07-12T13:33:03.950Z,27.01
2018-07-12T13:34:12.017Z,27.18
2018-07-12T13:35:20.114Z,27.13
2018-07-12T13:36:28.169Z,27.04
2018-07-12T13:37:36.243Z,27.01
2018-07-12T13:38:44.294Z,26.93
2018-07-12T13:39:52.411Z,26.86
2018-07-12T13:41:00.603Z,26.66
2018-07-12T13:42:08.549Z,26.59
2018-07-12T13:43:16.672Z,26.42
2018-07-12T13:44:24.694Z,26.36
2018-07-12T13:45:32.794Z,26.27
2018-07-12T13:46:40.913Z,26.26
2018-07-12T13:47:48.938Z,26.22
2018-07-12T13:48:57.000Z,26.01
2018-07-12T13:50:05.060Z,25.98
2018-07-12T13:51:13.125Z,26.04
2018-07-12T13:52:21.249Z,26.03
2018-07-12T13:53:29.291Z,25.67
2018-07-12T13:54:37.385Z,25.40
2018-07-12T13:55:45.462Z,25.39
2018-07-12T13:56:53.572Z,25.31
2018-07-12T13:58:01.642Z,25.37
2018-07-12T13:59:09.700Z,25.34
2018-07-12T14:00:17.743Z,25.00
2018-07-12T14:01:25.832Z,24.84
2018-07-12T14:02:33.915Z,24.79
2018-07-12T14:03:41.954Z,24.58
2018-07-12T14:04:50.040Z,24.55
2018-07-12T14:05:58.129Z,24.19
2018-07-12T14:07:06.194Z,24.18
2018-07-12T14:08:14.289Z,24.09
2018-07-12T14:09:22.348Z,24.07
2018-07-12T14:10:30.384Z,23.99
2018-07-12T14:11:38.498Z,24.01
2018-07-12T14:12:46.555Z,24.19
2018-07-12T14:13:54.629Z,24.18
2018-07-12T14:15:02.702Z,24.37
2018-07-12T14:16:10.780Z,24.50
2018-07-12T14:17:18.855Z,24.58
2018-07-12T14:18:28.733Z,24.55
2018-07-12T14:19:34.995Z,24.62
2018-07-12T14:20:43.062Z,24.56
2018-07-12T14:21:51.144Z,24.55
2018-07-12T14:22:59.219Z,24.61
2018-07-12T14:24:07.277Z,24.56
2018-07-12T14:25:15.351Z,24.69
2018-07-12T14:26:23.452Z,24.59
2018-07-12T14:27:31.520Z,24.56
2018-07-12T14:28:39.628Z,24.59
2018-07-12T14:29:47.682Z,24.61
2018-07-12T14:30:55.735Z,24.47
2018-07-12T14:32:03.809Z,24.41
2018-07-12T14:33:11.873Z,24.41
2018-07-12T14:34:19.965Z,24.53
2018-07-12T14:35:28.040Z,24.47
2018-07-12T14:36:36.119Z,24.51
2018-07-12T14:37:44.173Z,24.58
2018-07-12T14:38:52.255Z,24.56
2018-07-12T14:40:00.321Z,24.62
2018-07-12T14:41:08.406Z,24.74
2018-07-12T14:42:16.483Z,24.78
2018-07-12T14:43:24.515Z,24.93
2018-07-12T14:44:32.608Z,24.78
2018-07-12T14:45:40.686Z,24.88
2018-07-12T14:46:48.739Z,24.88
2018-07-12T14:47:56.833Z,25.09
2018-07-12T14:49:04.895Z,25.14